Observation data for Northfield on 01/11/2018      Previous  Date  Next       Current Mesonet Observations  Soil Data  Daily Summary Page  Observations in Plain Language
KNOR 110600Z 22016KT 12/01 A2951 RMK A01 T01210005  RH  045%=      5-min Rain = 0
KNOR 110605Z 22017G22KT 12/00 A2951 RMK A01 T01210004  RH  045%=      5-min Rain = 0
KNOR 110610Z 22018G27KT 12/00 A2951 RMK A01 T01220004  RH  045%=      5-min Rain = 0
KNOR 110615Z 23019G26KT 13/00 A2951 RMK A01 T01250003  RH  044%=      5-min Rain = 0
KNOR 110620Z 23017G23KT 12/00 A2951 RMK A01 T01240003  RH  044%=      5-min Rain = 0
KNOR 110625Z 22018G27KT 13/00 A295 RMK A01 T01250003  RH  044%=      5-min Rain = 0
KNOR 110630Z 22017G22KT 12/00 A295 RMK A01 T01240004  RH  044%=      5-min Rain = 0
KNOR 110635Z 22019G27KT 12/01 A295 RMK A01 T01240005  RH  044%=      5-min Rain = 0
KNOR 110640Z 22017G23KT 12/01 A295 RMK A01 T01230005  RH  045%=      5-min Rain = 0
KNOR 110645Z 22018G25KT 12/01 A295 RMK A01 T01220005  RH  045%=      5-min Rain = 0
KNOR 110650Z 22018G23KT 12/00 A295 RMK A01 T01220004  RH  045%=      5-min Rain = 0
KNOR 110655Z 21015G21KT 12/00 A2949 RMK A01 T01190004  RH  046%=      5-min Rain = 0
KNOR 110700Z 21017G25KT 12/00 A2949 RMK A01 T01180004  RH  046%=      5-min Rain = 0
KNOR 110705Z 21017G23KT 12/00 A2949 RMK A01 T01170004  RH  046%=      5-min Rain = 0
KNOR 110710Z 22017G23KT 12/00 A2949 RMK A01 T01170004  RH  046%=      5-min Rain = 0
KNOR 110715Z 22016G22KT 12/01 A2949 RMK A01 T01150005  RH  047%=      5-min Rain = 0
KNOR 110720Z 22017G24KT 12/01 A2949 RMK A01 T01160005  RH  047%=      5-min Rain = 0
KNOR 110725Z 22017G22KT 12/00 A295 RMK A01 T01170004  RH  046%=      5-min Rain = 0
KNOR 110730Z 22018G25KT 12/00 A295 RMK A01 T01190003  RH  045%=      5-min Rain = 0
KNOR 110735Z 23017G22KT 12/00 A295 RMK A01 T01230001  RH  044%=      5-min Rain = 0
KNOR 110740Z 23017G24KT 12/M00 A2949 RMK A01 T01241001  RH  043%=      5-min Rain = 0
KNOR 110745Z 23016G22KT 12/M00 A2949 RMK A01 T01231002  RH  042%=      5-min Rain = 0
KNOR 110750Z 24019G26KT 13/M00 A2948 RMK A01 T01251003  RH  042%=      5-min Rain = 0
KNOR 110755Z 24017G23KT 13/M00 A2948 RMK A01 T01251004  RH  041%=      5-min Rain = 0
KNOR 110800Z 24021G30KT 13/M01 A2948 RMK A01 T01281005  RH  040%=      5-min Rain = 0
KNOR 110805Z 24020G28KT 13/M01 A2948 RMK A01 T01271005  RH  041%=      5-min Rain = 0
KNOR 110810Z 24018G25KT 12/M01 A2948 RMK A01 T01241005  RH  041%=      5-min Rain = 0
KNOR 110815Z 24019G25KT 12/M01 A2948 RMK A01 T01241005  RH  041%=      5-min Rain = 0
KNOR 110820Z 24017G23KT 12/M01 A2949 RMK A01 T01241006  RH  041%=      5-min Rain = 0
KNOR 110825Z 24019G30KT 12/M01 A2948 RMK A01 T01241006  RH  041%=      5-min Rain = 0
KNOR 110830Z 24021G26KT 12/M01 A2948 RMK A01 T01241005  RH  041%=      5-min Rain = 0
KNOR 110835Z 24021G29KT 12/M01 A2948 RMK A01 T01241005  RH  041%=      5-min Rain = 0
KNOR 110840Z 24019G26KT 12/M01 A2948 RMK A01 T01221005  RH  042%=      5-min Rain = 0
KNOR 110845Z 24020G25KT 12/M01 A2948 RMK A01 T01211005  RH  042%=      5-min Rain = 0
KNOR 110850Z 25019G26KT 12/M01 A2949 RMK A01 T01191005  RH  043%=      5-min Rain = 0
KNOR 110855Z 25020G26KT 12/M01 A2949 RMK A01 T01201006  RH  042%=      5-min Rain = 0
KNOR 110900Z 25018KT 12/M01 A2949 RMK A01 T01191007  RH  042%=      5-min Rain = 0
KNOR 110905Z 26014G19KT 12/M01 A295 RMK A01 T01171008  RH  042%=      5-min Rain = 0
KNOR 110910Z 28013G18KT 12/M01 A2951 RMK A01 T01161010  RH  042%=      5-min Rain = 0
KNOR 110915Z 29016G24KT 12/M01 A2952 RMK A01 T01181012  RH  041%=      5-min Rain = 0
KNOR 110920Z 31021G33KT 12/M02 A2953 RMK A01 T01191015  RH  040%=      5-min Rain = 0
KNOR 110925Z 33022G31KT 12/M01 A2954 RMK A01 T01151014  RH  041%=      5-min Rain = 0
KNOR 110930Z 33023G34KT 11/M01 A2955 RMK A01 T01131011  RH  043%=      5-min Rain = 0
KNOR 110935Z 33021G28KT 11/M01 A2955 RMK A01 T01111010  RH  044%=      5-min Rain = 0
KNOR 110940Z 33024G31KT 11/M01 A2956 RMK A01 T01101006  RH  045%=      5-min Rain = 0
KNOR 110945Z 33022G30KT 11/M00 A2957 RMK A01 T01081003  RH  047%=      5-min Rain = 0
KNOR 110950Z 33021G31KT 11/00 A2958 RMK A01 T01060000  RH  048%=      5-min Rain = 0
KNOR 110955Z 34026G39KT 10/00 A2959 RMK A01 T01020002  RH  050%=      5-min Rain = 0
KNOR 111000Z 34028G38KT 10/01 A296 RMK A01 T00950005  RH  054%=      5-min Rain = 0
KNOR 111005Z 34024G34KT 09/01 A2961 RMK A01 T00920006  RH  055%=      5-min Rain = 0
KNOR 111010Z 34024G33KT 09/01 A2961 RMK A01 T00900007  RH  056%=      5-min Rain = 0
KNOR 111015Z 34023G32KT 09/01 A2962 RMK A01 T00880007  RH  058%=      5-min Rain = 0
KNOR 111020Z 34025G35KT 09/01 A2963 RMK A01 T00850005  RH  058%=      5-min Rain = 0
KNOR 111025Z 33025G35KT 08/00 A2964 RMK A01 T00800002  RH  058%=      5-min Rain = 0
KNOR 111030Z 33023G31KT 08/M00 A2966 RMK A01 T00761001  RH  059%=      5-min Rain = 0
KNOR 111035Z 34023G32KT 07/M00 A2967 RMK A01 T00721002  RH  060%=      5-min Rain = 0
KNOR 111040Z 34022G32KT 07/M00 A2967 RMK A01 T00711002  RH  060%=      5-min Rain = 0
KNOR 111045Z 34020G28KT 07/M00 A2968 RMK A01 T00701003  RH  060%=      5-min Rain = 0
KNOR 111050Z 35021G29KT 07/M01 A2968 RMK A01 T00691005  RH  060%=      5-min Rain = 0
KNOR 111055Z 34020G29KT 07/M01 A2969 RMK A01 T00681006  RH  060%=      5-min Rain = 0
KNOR 111100Z 35021G31KT 07/M01 A2969 RMK A01 T00671008  RH  059%=      5-min Rain = 0
KNOR 111105Z 35018G25KT 06/M01 A2969 RMK A01 T00641011  RH  059%=      5-min Rain = 0
KNOR 111110Z 35016G22KT 06/M01 A2969 RMK A01 T00621011  RH  060%=      5-min Rain = 0
KNOR 111115Z 33021G36KT 06/M01 A297 RMK A01 T00631010  RH  060%=      5-min Rain = 0
KNOR 111120Z 33024G34KT 06/M02 A297 RMK A01 T00581016  RH  060%=      5-min Rain = 0
KNOR 111125Z 33025G36KT 05/M02 A297 RMK A01 T00541020  RH  060%=      5-min Rain = 0
KNOR 111130Z 34024G33KT 05/M02 A2971 RMK A01 T00501024  RH  059%=      5-min Rain = 0
KNOR 111135Z 34028G36KT 05/M03 A2972 RMK A01 T00461027  RH  060%=      5-min Rain = 0
KNOR 111140Z 35024G36KT 04/M03 A2972 RMK A01 T00421029  RH  061%=      5-min Rain = 0
KNOR 111145Z 35025G35KT 04/M03 A2973 RMK A01 T00401030  RH  061%=      5-min Rain = 0
KNOR 111150Z 35023G34KT 04/M03 A2973 RMK A01 T00381031  RH  062%=      5-min Rain = 0
KNOR 111155Z 34019G28KT 04/M03 A2974 RMK A01 T00371031  RH  062%=      5-min Rain = 0
KNOR 111200Z 34018G26KT 04/M03 A2975 RMK A01 T00391029  RH  062%=      5-min Rain = 0
KNOR 111205Z 34021G27KT 04/M03 A2976 RMK A01 T00421027  RH  062%=      5-min Rain = 0
KNOR 111210Z 34022G29KT 04/M03 A2977 RMK A01 T00421027  RH  062%=      5-min Rain = 0
KNOR 111215Z 33022G30KT 04/M03 A2978 RMK A01 T00391028  RH  062%=      5-min Rain = 0
KNOR 111220Z 33024G32KT 03/M03 A2979 RMK A01 T00331032  RH  063%=      5-min Rain = 0
KNOR 111225Z 34025G34KT 03/M04 A2979 RMK A01 T00291037  RH  063%=      5-min Rain = 0
KNOR 111230Z 34028G38KT 02/M04 A298 RMK A01 T00231044  RH  062%=      5-min Rain = 0
KNOR 111235Z 34023G33KT 02/M05 A298 RMK A01 T00201046  RH  062%=      5-min Rain = 0
KNOR 111240Z 34026G37KT 02/M05 A2981 RMK A01 T00171048  RH  062%=      5-min Rain = 0
KNOR 111245Z 34027G35KT 02/M05 A2982 RMK A01 T00151051  RH  062%=      5-min Rain = 0
KNOR 111250Z 34026G36KT 02/M05 A2982 RMK A01 T00151051  RH  062%=      5-min Rain = 0
KNOR 111255Z 34024G34KT 01/M05 A2982 RMK A01 T00141051  RH  063%=      5-min Rain = 0
KNOR 111300Z 34019G28KT 01/M05 A2983 RMK A01 T00141050  RH  063%=      5-min Rain = 0
KNOR 111305Z 34017G27KT 01/M05 A2983 RMK A01 T00141049  RH  064%=      5-min Rain = 0
KNOR 111310Z 34019G28KT 02/M05 A2984 RMK A01 T00161045  RH  064%=      5-min Rain = 0
KNOR 111315Z 34021G31KT 02/M04 A2985 RMK A01 T00181043  RH  065%=      5-min Rain = 0
KNOR 111320Z 34026G36KT 01/M05 A2986 RMK A01 T00121053  RH  063%=      5-min Rain = 0
KNOR 111325Z 34027G43KT 01/M06 A2988 RMK A01 T00061059  RH  062%=      5-min Rain = 0
KNOR 111330Z 34024G35KT 00/M06 A2988 RMK A01 T00041060  RH  063%=      5-min Rain = 0
KNOR 111335Z 35024G32KT 00/M06 A2989 RMK A01 T00031059  RH  064%=      5-min Rain = 0
KNOR 111340Z 34023G30KT 00/M06 A2989 RMK A01 T00041058  RH  064%=      5-min Rain = 0
KNOR 111345Z 34019G27KT 00/M06 A2989 RMK A01 T00041057  RH  064%=      5-min Rain = 0
KNOR 111350Z 34018G24KT 00/M06 A2989 RMK A01 T00041056  RH  065%=      5-min Rain = 0
KNOR 111355Z 33020G27KT 01/M06 A299 RMK A01 T00051055  RH  065%=      5-min Rain = 0
KNOR 111400Z 33026G37KT 01/M06 A299 RMK A01 T00051056  RH  064%=      5-min Rain = 0
KNOR 111405Z 34023G31KT 00/M06 A2991 RMK A01 T00021059  RH  064%=      5-min Rain = 0
KNOR 111410Z 34026G38KT 00/M06 A2992 RMK A01 T00011062  RH  063%=      5-min Rain = 0
KNOR 111415Z 34027G36KT 00/07 A2993 RMK A01 T00-00-66  RH  062%=      5-min Rain = 0
KNOR 111420Z 34026G37KT M00/M07 A2993 RMK A01 T10011068  RH  061%=      5-min Rain = 0
KNOR 111425Z 34021G30KT M00/M07 A2994 RMK A01 T10011069  RH  061%=      5-min Rain = 0
KNOR 111430Z 34025G34KT M00/M07 A2994 RMK A01 T10031070  RH  061%=      5-min Rain = 0
KNOR 111435Z 34026G39KT M00/M07 A2995 RMK A01 T10041071  RH  061%=      5-min Rain = 0
KNOR 111440Z 35023G33KT M00/M07 A2995 RMK A01 T10041072  RH  061%=      5-min Rain = 0
KNOR 111445Z 35021G28KT M01/M07 A2996 RMK A01 T10051072  RH  061%=      5-min Rain = 0
KNOR 111450Z 35020G25KT M01/M07 A2996 RMK A01 T10051072  RH  061%=      5-min Rain = 0
KNOR 111455Z 35020G29KT M01/M07 A2997 RMK A01 T10051071  RH  062%=      5-min Rain = 0
KNOR 111500Z 35021G29KT M00/M07 A2997 RMK A01 T10021069  RH  061%=      5-min Rain = 0
KNOR 111505Z 35022G37KT M00/M07 A2998 RMK A01 T10011070  RH  060%=      5-min Rain = 0
KNOR 111510Z 35021G27KT 00/M07 A2999 RMK A01 T00011072  RH  059%=      5-min Rain = 0
KNOR 111515Z 35021G29KT 00/M07 A2999 RMK A01 T00031074  RH  057%=      5-min Rain = 0
KNOR 111520Z 35021G30KT 01/M07 A30 RMK A01 T00051074  RH  056%=      5-min Rain = 0
KNOR 111525Z 35019G29KT 01/M07 A30 RMK A01 T00081073  RH  055%=      5-min Rain = 0
KNOR 111530Z 35020G30KT 01/M07 A30 RMK A01 T00101072  RH  055%=      5-min Rain = 0
KNOR 111535Z 34019G26KT 01/M07 A3001 RMK A01 T00131071  RH  054%=      5-min Rain = 0
KNOR 111540Z 34020G31KT 02/M07 A3001 RMK A01 T00161073  RH  052%=      5-min Rain = 0
KNOR 111545Z 35020G26KT 01/M08 A3002 RMK A01 T00141076  RH  052%=      5-min Rain = 0
KNOR 111550Z 35022G30KT 01/M08 A3003 RMK A01 T00121076  RH  052%=      5-min Rain = 0
KNOR 111555Z 35022G30KT 02/M08 A3003 RMK A01 T00181077  RH  050%=      5-min Rain = 0
KNOR 111600Z 34019G28KT 02/M08 A3004 RMK A01 T00221077  RH  049%=      5-min Rain = 0
KNOR 111605Z 35020G31KT 02/M08 A3005 RMK A01 T00241080  RH  047%=      5-min Rain = 0
KNOR 111610Z 35026G39KT 02/M09 A3006 RMK A01 T00191087  RH  046%=      5-min Rain = 0
KNOR 111615Z 35023G33KT 01/M09 A3006 RMK A01 T00141089  RH  047%=      5-min Rain = 0
KNOR 111620Z 35022G31KT 02/M09 A3007 RMK A01 T00181088  RH  046%=      5-min Rain = 0
KNOR 111625Z 35026G34KT 02/M09 A3007 RMK A01 T00191091  RH  044%=      5-min Rain = 0
KNOR 111630Z 36023G32KT 02/M09 A3008 RMK A01 T00201093  RH  044%=      5-min Rain = 0
KNOR 111635Z 34022G30KT 02/M09 A3008 RMK A01 T00241091  RH  043%=      5-min Rain = 0
KNOR 111640Z 34022G34KT 03/M09 A3008 RMK A01 T00271091  RH  042%=      5-min Rain = 0
KNOR 111645Z 35024G32KT 03/M09 A3008 RMK A01 T00271093  RH  041%=      5-min Rain = 0
KNOR 111650Z 35023G29KT 03/M09 A3009 RMK A01 T00281093  RH  041%=      5-min Rain = 0
KNOR 111655Z 34018G27KT 04/M09 A3009 RMK A01 T00361091  RH  040%=      5-min Rain = 0
KNOR 111700Z 34024G33KT 03/M09 A3009 RMK A01 T00341093  RH  039%=      5-min Rain = 0
KNOR 111705Z 34021G28KT 04/M09 A3009 RMK A01 T00381094  RH  038%=      5-min Rain = 0
KNOR 111710Z 34020G29KT 04/M10 A301 RMK A01 T00391095  RH  037%=      5-min Rain = 0
KNOR 111715Z 34022G30KT 04/M10 A301 RMK A01 T00411097  RH  036%=      5-min Rain = 0
KNOR 111720Z 34025G32KT 04/M10 A301 RMK A01 T00401099  RH  036%=      5-min Rain = 0
KNOR 111725Z 33022G32KT 04/M10 A3011 RMK A01 T00391101  RH  036%=      5-min Rain = 0
KNOR 111730Z 35025G34KT 04/M10 A3011 RMK A01 T00411103  RH  035%=      5-min Rain = 0
KNOR 111735Z 34027G36KT 04/M11 A3011 RMK A01 T00401105  RH  034%=      5-min Rain = 0
KNOR 111740Z 34026G33KT 04/M10 A3011 RMK A01 T00401104  RH  034%=      5-min Rain = 0
KNOR 111745Z 35022G31KT 04/M10 A3011 RMK A01 T00441102  RH  034%=      5-min Rain = 0
KNOR 111750Z 33022G32KT 05/M10 A3011 RMK A01 T00471098  RH  035%=      5-min Rain = 0
KNOR 111755Z 34025G32KT 05/M10 A3012 RMK A01 T00471102  RH  033%=      5-min Rain = 0
KNOR 111800Z 35021G29KT 05/M10 A3012 RMK A01 T00501103  RH  033%=      5-min Rain = 0
KNOR 111805Z 34024G32KT 05/M10 A3012 RMK A01 T00491101  RH  033%=      5-min Rain = 0
KNOR 111810Z 34024G31KT 05/M10 A3012 RMK A01 T00491100  RH  034%=      5-min Rain = 0
KNOR 111815Z 34023G29KT 05/M10 A3012 RMK A01 T00521101  RH  033%=      5-min Rain = 0
KNOR 111820Z 35021G32KT 06/M10 A3012 RMK A01 T00561103  RH  031%=      5-min Rain = 0
KNOR 111825Z 35022G31KT 06/M11 A3012 RMK A01 T00571105  RH  031%=      5-min Rain = 0
KNOR 111830Z 34022G31KT 06/M10 A3012 RMK A01 T00581104  RH  031%=      5-min Rain = 0
KNOR 111835Z 34023G34KT 06/M10 A3012 RMK A01 T00621103  RH  030%=      5-min Rain = 0
KNOR 111840Z 34026G37KT 06/M11 A3012 RMK A01 T00591105  RH  030%=      5-min Rain = 0
KNOR 111845Z 35024G34KT 06/M10 A3012 RMK A01 T00611104  RH  030%=      5-min Rain = 0
KNOR 111850Z 33023G31KT 06/M10 A3012 RMK A01 T00621103  RH  030%=      5-min Rain = 0
KNOR 111855Z 34023G30KT 06/M10 A3012 RMK A01 T00601104  RH  030%=      5-min Rain = 0
KNOR 111900Z 34025G32KT 06/M11 A3013 RMK A01 T00551105  RH  031%=      5-min Rain = 0
KNOR 111905Z 34022G29KT 06/M11 A3013 RMK A01 T00591105  RH  030%=      5-min Rain = 0
KNOR 111910Z 34026G35KT 06/M11 A3013 RMK A01 T00591107  RH  030%=      5-min Rain = 0
KNOR 111915Z 35022G32KT 06/M11 A3013 RMK A01 T00611107  RH  029%=      5-min Rain = 0
KNOR 111920Z 36024G32KT 06/M11 A3013 RMK A01 T00631107  RH  029%=      5-min Rain = 0
KNOR 111925Z 35020G30KT 07/M10 A3013 RMK A01 T00661103  RH  029%=      5-min Rain = 0
KNOR 111930Z 33026G32KT 06/M10 A3013 RMK A01 T00641102  RH  030%=      5-min Rain = 0
KNOR 111935Z 34025G36KT 06/M11 A3013 RMK A01 T00631106  RH  029%=      5-min Rain = 0
KNOR 111940Z 35024G30KT 06/M11 A3013 RMK A01 T00631107  RH  029%=      5-min Rain = 0
KNOR 111945Z 34022G28KT 07/M11 A3014 RMK A01 T00671105  RH  029%=      5-min Rain = 0
KNOR 111950Z 35021G27KT 07/M10 A3014 RMK A01 T00661103  RH  029%=      5-min Rain = 0
KNOR 111955Z 35019G25KT 07/M10 A3014 RMK A01 T00701102  RH  029%=      5-min Rain = 0
KNOR 112000Z 34018G27KT 07/M10 A3013 RMK A01 T00741101  RH  028%=      5-min Rain = 0
KNOR 112005Z 34019G24KT 08/M10 A3014 RMK A01 T00761103  RH  027%=      5-min Rain = 0
KNOR 112010Z 34020G28KT 08/M11 A3014 RMK A01 T00771105  RH  027%=      5-min Rain = 0
KNOR 112015Z 35023G33KT 07/M11 A3014 RMK A01 T00731107  RH  027%=      5-min Rain = 0
KNOR 112020Z 35023G32KT 08/M11 A3014 RMK A01 T00751107  RH  026%=      5-min Rain = 0
KNOR 112025Z 35021G27KT 08/M11 A3014 RMK A01 T00761106  RH  027%=      5-min Rain = 0
KNOR 112030Z 35018G27KT 08/M10 A3014 RMK A01 T00801103  RH  026%=      5-min Rain = 0
KNOR 112035Z 34023G32KT 08/M11 A3015 RMK A01 T00761106  RH  027%=      5-min Rain = 0
KNOR 112040Z 35024G31KT 07/M11 A3015 RMK A01 T00731107  RH  027%=      5-min Rain = 0
KNOR 112045Z 35024G30KT 07/M11 A3015 RMK A01 T00731108  RH  027%=      5-min Rain = 0
KNOR 112050Z 35020G32KT 08/M11 A3016 RMK A01 T00771106  RH  026%=      5-min Rain = 0
KNOR 112055Z 35024G31KT 07/M11 A3016 RMK A01 T00741107  RH  027%=      5-min Rain = 0
KNOR 112100Z 35020G28KT 08/M11 A3016 RMK A01 T00751105  RH  027%=      5-min Rain = 0
KNOR 112105Z 35021G28KT 08/M10 A3016 RMK A01 T00761104  RH  027%=      5-min Rain = 0
KNOR 112110Z 35019G31KT 08/M10 A3016 RMK A01 T00781102  RH  027%=      5-min Rain = 0
KNOR 112115Z 36023G31KT 08/M11 A3017 RMK A01 T00761106  RH  026%=      5-min Rain = 0
KNOR 112120Z 36020G26KT 08/M10 A3017 RMK A01 T00751104  RH  027%=      5-min Rain = 0
KNOR 112125Z 35019G26KT 08/M10 A3017 RMK A01 T00751102  RH  028%=      5-min Rain = 0
KNOR 112130Z 34019G25KT 08/M10 A3017 RMK A01 T00761101  RH  028%=      5-min Rain = 0
KNOR 112135Z 35020G31KT 08/M10 A3017 RMK A01 T00791102  RH  027%=      5-min Rain = 0
KNOR 112140Z 35023G34KT 08/M11 A3018 RMK A01 T00781106  RH  026%=      5-min Rain = 0
KNOR 112145Z 35020G26KT 08/M11 A3018 RMK A01 T00771105  RH  026%=      5-min Rain = 0
KNOR 112150Z 35021G30KT 08/M10 A3019 RMK A01 T00751102  RH  027%=      5-min Rain = 0
KNOR 112155Z 34023G31KT 07/M11 A3019 RMK A01 T00741105  RH  027%=      5-min Rain = 0
KNOR 112200Z 35020G27KT 07/M11 A3019 RMK A01 T00711108  RH  027%=      5-min Rain = 0
KNOR 112205Z 35018G25KT 07/M11 A3019 RMK A01 T00721106  RH  027%=      5-min Rain = 0
KNOR 112210Z 35016G23KT 07/M11 A3019 RMK A01 T00721105  RH  028%=      5-min Rain = 0
KNOR 112215Z 34015G20KT 07/M10 A3019 RMK A01 T00731104  RH  028%=      5-min Rain = 0
KNOR 112220Z 35014G19KT 07/M10 A3019 RMK A01 T00721103  RH  028%=      5-min Rain = 0
KNOR 112225Z 35014G19KT 07/M10 A3019 RMK A01 T00711101  RH  028%=      5-min Rain = 0
KNOR 112230Z 35014G19KT 07/M10 A3019 RMK A01 T00721101  RH  028%=      5-min Rain = 0
KNOR 112235Z 35014G19KT 07/M10 A3019 RMK A01 T00721100  RH  029%=      5-min Rain = 0
KNOR 112240Z 35015G20KT 07/M10 A3019 RMK A01 T00721100  RH  029%=      5-min Rain = 0
KNOR 112245Z 35012G18KT 07/M10 A302 RMK A01 T00711099  RH  029%=      5-min Rain = 0
KNOR 112250Z 35012KT 07/M10 A302 RMK A01 T00721098  RH  029%=      5-min Rain = 0
KNOR 112255Z 34016G23KT 07/M10 A302 RMK A01 T00721099  RH  029%=      5-min Rain = 0
KNOR 112300Z 35014G20KT 07/M10 A302 RMK A01 T00711098  RH  029%=      5-min Rain = 0
KNOR 112305Z 35014KT 07/M10 A3021 RMK A01 T00701098  RH  030%=      5-min Rain = 0
KNOR 112310Z 35014KT 07/M10 A3021 RMK A01 T00681098  RH  030%=      5-min Rain = 0
KNOR 112315Z 35014G20KT 07/M10 A3021 RMK A01 T00671098  RH  030%=      5-min Rain = 0
KNOR 112320Z 35011KT 07/M10 A3021 RMK A01 T00651097  RH  031%=      5-min Rain = 0
KNOR 112325Z 36013KT 06/M10 A3021 RMK A01 T00641097  RH  031%=      5-min Rain = 0
KNOR 112330Z 00012KT 06/M10 A3022 RMK A01 T00611096  RH  032%=      5-min Rain = 0
KNOR 112335Z 36012KT 06/M10 A3022 RMK A01 T00591096  RH  032%=      5-min Rain = 0
KNOR 112340Z 36012G17KT 06/M10 A3022 RMK A01 T00571095  RH  033%=      5-min Rain = 0
KNOR 112345Z 36011KT 06/M10 A3022 RMK A01 T00551095  RH  033%=      5-min Rain = 0
KNOR 112350Z 36011KT 05/M10 A3022 RMK A01 T00521095  RH  034%=      5-min Rain = 0
KNOR 112355Z 35011KT 05/M09 A3022 RMK A01 T00501094  RH  035%=      5-min Rain = 0
KNOR 120000Z 35011KT 05/M09 A3023 RMK A01 T00481094  RH  035%=      5-min Rain = 0
KNOR 120005Z 35010KT 05/M09 A3023 RMK A01 T00451094  RH  036%=      5-min Rain = 0
KNOR 120010Z 35012KT 05/M09 A3023 RMK A01 T00451094  RH  036%=      5-min Rain = 0
KNOR 120015Z 36012G17KT 05/M10 A3024 RMK A01 T00451095  RH  036%=      5-min Rain = 0
KNOR 120020Z 36012G17KT 04/M10 A3024 RMK A01 T00421096  RH  036%=      5-min Rain = 0
KNOR 120025Z 36011G16KT 04/M10 A3024 RMK A01 T00411096  RH  037%=      5-min Rain = 0
KNOR 120030Z 00011KT 04/M10 A3024 RMK A01 T00401096  RH  037%=      5-min Rain = 0
KNOR 120035Z 36011KT 04/M10 A3024 RMK A01 T00381096  RH  037%=      5-min Rain = 0
KNOR 120040Z 00010KT 04/M10 A3024 RMK A01 T00371096  RH  038%=      5-min Rain = 0
KNOR 120045Z 36010KT 04/M10 A3025 RMK A01 T00351096  RH  038%=      5-min Rain = 0
KNOR 120050Z 36008KT 03/M10 A3025 RMK A01 T00321096  RH  039%=      5-min Rain = 0
KNOR 120055Z 00008KT 03/M10 A3025 RMK A01 T00291096  RH  040%=      5-min Rain = 0
KNOR 120100Z 36009KT 03/M10 A3026 RMK A01 T00271096  RH  040%=      5-min Rain = 0
KNOR 120105Z 35008KT 03/M10 A3026 RMK A01 T00271096  RH  040%=      5-min Rain = 0
KNOR 120110Z 35008KT 03/M10 A3026 RMK A01 T00251096  RH  041%=      5-min Rain = 0
KNOR 120115Z 35008KT 02/M10 A3026 RMK A01 T00241096  RH  041%=      5-min Rain = 0
KNOR 120120Z 35007KT 02/M10 A3027 RMK A01 T00221096  RH  042%=      5-min Rain = 0
KNOR 120125Z 35008G13KT 02/M10 A3027 RMK A01 T00221095  RH  042%=      5-min Rain = 0
KNOR 120130Z 36008KT 02/M10 A3027 RMK A01 T00211095  RH  043%=      5-min Rain = 0
KNOR 120135Z 36008KT 02/M10 A3027 RMK A01 T00191095  RH  043%=      5-min Rain = 0
KNOR 120140Z 36007KT 02/M10 A3027 RMK A01 T00161095  RH  044%=      5-min Rain = 0
KNOR 120145Z 35006KT 01/M10 A3028 RMK A01 T00131096  RH  045%=      5-min Rain = 0
KNOR 120150Z 35005KT 01/M10 A3028 RMK A01 T00091096  RH  046%=      5-min Rain = 0
KNOR 120155Z 36005KT 01/M10 A3028 RMK A01 T00071097  RH  046%=      5-min Rain = 0
KNOR 120200Z 01006KT 01/M10 A3028 RMK A01 T00061097  RH  047%=      5-min Rain = 0
KNOR 120205Z 00007KT 01/M10 A3028 RMK A01 T00051096  RH  047%=      5-min Rain = 0
KNOR 120210Z 00007KT 01/M10 A3028 RMK A01 T00051096  RH  047%=      5-min Rain = 0
KNOR 120215Z 00007KT 00/M10 A3028 RMK A01 T00041096  RH  048%=      5-min Rain = 0
KNOR 120220Z 00007KT 00/M10 A3028 RMK A01 T00011097  RH  048%=      5-min Rain = 0
KNOR 120225Z 36006KT 00/10 A3029 RMK A01 T00000-97  RH  049%=      5-min Rain = 0
KNOR 120230Z 36007KT 00/10 A3029 RMK A01 T00-00-96  RH  049%=      5-min Rain = 0
KNOR 120235Z 00008KT 00/10 A3029 RMK A01 T00-00-96  RH  049%=      5-min Rain = 0
KNOR 120240Z 00008KT M00/M10 A3029 RMK A01 T10011096  RH  049%=      5-min Rain = 0
KNOR 120245Z 00007KT 00/10 A3029 RMK A01 T00-00-96  RH  049%=      5-min Rain = 0
KNOR 120250Z 00008KT 00/10 A3029 RMK A01 T00-00-95  RH  049%=      5-min Rain = 0
KNOR 120255Z 01008KT 00/10 A3029 RMK A01 T00-00-95  RH  049%=      5-min Rain = 0
KNOR 120300Z 01007KT M00/M10 A3029 RMK A01 T10011096  RH  050%=      5-min Rain = 0
KNOR 120305Z 01007KT M00/M10 A3029 RMK A01 T10041096  RH  050%=      5-min Rain = 0
KNOR 120310Z 02008KT M00/M10 A3029 RMK A01 T10041096  RH  051%=      5-min Rain = 0
KNOR 120315Z 02007KT M01/M10 A3029 RMK A01 T10051096  RH  051%=      5-min Rain = 0
KNOR 120320Z 02007KT M01/M10 A3029 RMK A01 T10071097  RH  051%=      5-min Rain = 0
KNOR 120325Z 02007KT M01/M10 A3029 RMK A01 T10091098  RH  052%=      5-min Rain = 0
KNOR 120330Z 02007KT M01/M10 A3029 RMK A01 T10101097  RH  052%=      5-min Rain = 0
KNOR 120335Z 02008KT M01/M10 A3029 RMK A01 T10081096  RH  052%=      5-min Rain = 0
KNOR 120340Z 01008KT M01/M10 A303 RMK A01 T10091097  RH  052%=      5-min Rain = 0
KNOR 120345Z 01009KT M01/M10 A3029 RMK A01 T10101096  RH  053%=      5-min Rain = 0
KNOR 120350Z 02008KT M01/M10 A3029 RMK A01 T10101096  RH  053%=      5-min Rain = 0
KNOR 120355Z 02008KT M01/M10 A3029 RMK A01 T10101095  RH  053%=      5-min Rain = 0
KNOR 120400Z 02008KT M01/M10 A3029 RMK A01 T10111096  RH  053%=      5-min Rain = 0
KNOR 120405Z 02007KT M01/M10 A3029 RMK A01 T10141097  RH  054%=      5-min Rain = 0
KNOR 120410Z 02006KT M02/M10 A303 RMK A01 T10151097  RH  054%=      5-min Rain = 0
KNOR 120415Z 02005KT M02/M10 A303 RMK A01 T10181098  RH  055%=      5-min Rain = 0
KNOR 120420Z 03005KT M02/M10 A303 RMK A01 T10201098  RH  056%=      5-min Rain = 0
KNOR 120425Z 04006KT M02/M10 A303 RMK A01 T10231099  RH  056%=      5-min Rain = 0
KNOR 120430Z 03006KT M02/M10 A303 RMK A01 T10241099  RH  057%=      5-min Rain = 0
KNOR 120435Z 03007KT M03/M10 A303 RMK A01 T10261100  RH  058%=      5-min Rain = 0
KNOR 120440Z 35005KT M03/M10 A3031 RMK A01 T10291101  RH  058%=      5-min Rain = 0
KNOR 120445Z 31003KT M04/M11 A3031 RMK A01 T10391105  RH  061%=      5-min Rain = 0
KNOR 120450Z 31003KT M03/M10 A3031 RMK A01 T10341101  RH  060%=      5-min Rain = 0
KNOR 120455Z 29002KT M03/M10 A303 RMK A01 T10341100  RH  061%=      5-min Rain = 0
KNOR 120500Z 28003KT M03/M10 A3031 RMK A01 T10271099  RH  058%=      5-min Rain = 0
KNOR 120505Z 29003KT M03/M10 A303 RMK A01 T10291100  RH  059%=      5-min Rain = 0
KNOR 120510Z 28003KT M03/M10 A3031 RMK A01 T10301101  RH  059%=      5-min Rain = 0
KNOR 120515Z 27003KT M03/M10 A3031 RMK A01 T10321102  RH  059%=      5-min Rain = 0
KNOR 120520Z 25004KT M03/M10 A3031 RMK A01 T10331102  RH  059%=      5-min Rain = 0
KNOR 120525Z 25004KT M04/M10 A3031 RMK A01 T10371104  RH  060%=      5-min Rain = 0
KNOR 120530Z 25003KT M04/M10 A3031 RMK A01 T10391104  RH  061%=      5-min Rain = 0
KNOR 120535Z 25003KT M04/M10 A3031 RMK A01 T10361101  RH  061%=      5-min Rain = 0
KNOR 120540Z 25003KT M04/M10 A3031 RMK A01 T10361102  RH  061%=      5-min Rain = 0
KNOR 120545Z 28001KT M04/M10 A303 RMK A01 T10351100  RH  061%=      5-min Rain = 0
KNOR 120550Z 32002KT M03/M10 A303 RMK A01 T10321099  RH  061%=      5-min Rain = 0
KNOR 120555Z 30002KT M03/M10 A3029 RMK A01 T10291098  RH  060%=      5-min Rain = 0

Page generated in 0.0154 seconds.